createdAt,value
2022-08-22T00:01:46.094Z,17.38
2022-08-22T00:02:53.747Z,17.92
2022-08-22T00:02:59.227Z,17.13
2022-08-22T00:03:10.645Z,17.87
2022-08-22T00:04:20.400Z,17.39
2022-08-22T00:06:56.849Z,17.36
2022-08-22T00:09:32.351Z,17.32
2022-08-22T00:12:07.989Z,17.31
2022-08-22T00:14:41.499Z,17.40
2022-08-22T00:17:38.475Z,17.42
2022-08-22T00:20:09.311Z,17.53
2022-08-22T00:22:42.524Z,17.35
2022-08-22T00:25:47.194Z,17.31
2022-08-22T00:28:18.916Z,17.21
2022-08-22T00:30:54.790Z,17.17
2022-08-22T00:33:34.894Z,17.19
2022-08-22T00:36:14.994Z,17.26
2022-08-22T00:38:47.782Z,17.38
2022-08-22T00:41:28.614Z,17.34
2022-08-22T00:44:37.824Z,17.39
2022-08-22T00:47:26.284Z,17.28
2022-08-22T00:50:24.059Z,17.25
2022-08-22T00:53:11.544Z,17.17
2022-08-22T00:55:50.228Z,17.08
2022-08-22T00:59:00.262Z,17.20
2022-08-22T01:01:52.477Z,16.96
2022-08-22T01:04:40.164Z,16.95
2022-08-22T01:07:21.144Z,17.02
2022-08-22T01:10:02.375Z,16.86
2022-08-22T01:12:57.949Z,16.91
2022-08-22T01:15:28.984Z,16.94
2022-08-22T01:18:12.444Z,16.87
2022-08-22T01:21:08.338Z,16.78
2022-08-22T01:24:26.430Z,16.95
2022-08-22T01:27:33.496Z,16.89
2022-08-22T01:30:19.941Z,16.74
2022-08-22T01:33:36.246Z,16.74
2022-08-22T01:36:23.230Z,16.78
2022-08-22T01:39:11.043Z,16.69
2022-08-22T01:42:04.042Z,16.72
2022-08-22T01:45:02.452Z,16.64
2022-08-22T01:47:37.649Z,16.67
2022-08-22T01:50:17.405Z,16.77
2022-08-22T01:52:50.095Z,16.82
2022-08-22T01:55:26.566Z,16.66
2022-08-22T01:57:56.311Z,16.58
2022-08-22T02:00:34.789Z,16.56
2022-08-22T02:03:13.263Z,16.58
2022-08-22T02:05:52.292Z,16.70
2022-08-22T02:08:30.459Z,16.55
2022-08-22T02:11:05.106Z,16.45
2022-08-22T02:13:54.465Z,16.37
2022-08-22T02:16:32.161Z,16.42
2022-08-22T02:19:26.237Z,16.46
2022-08-22T02:22:01.834Z,16.46
2022-08-22T02:24:50.989Z,16.42
2022-08-22T02:27:31.562Z,16.54
2022-08-22T02:30:08.041Z,16.45
2022-08-22T02:32:45.841Z,16.45
2022-08-22T02:35:24.191Z,16.53
2022-08-22T02:38:04.594Z,16.56
2022-08-22T02:40:39.197Z,16.60
2022-08-22T02:43:16.423Z,16.55
2022-08-22T02:45:49.251Z,16.52
2022-08-22T02:48:33.835Z,16.60
2022-08-22T02:51:10.491Z,16.38
2022-08-22T02:53:44.916Z,16.33
2022-08-22T02:56:19.591Z,16.31
2022-08-22T02:58:53.443Z,16.16
2022-08-22T03:01:40.861Z,16.33
2022-08-22T03:04:44.952Z,16.35
2022-08-22T03:07:23.114Z,16.32
2022-08-22T03:10:01.671Z,16.41
2022-08-22T03:12:33.087Z,16.43
2022-08-22T03:15:09.791Z,16.31
2022-08-22T03:17:47.537Z,16.26
2022-08-22T03:20:22.745Z,16.32
2022-08-22T03:22:56.401Z,16.27
2022-08-22T03:25:36.778Z,16.17
2022-08-22T03:28:10.604Z,16.22
2022-08-22T03:30:42.977Z,16.24
2022-08-22T03:33:15.280Z,16.15
2022-08-22T03:35:59.689Z,16.23
2022-08-22T03:38:39.453Z,16.32
2022-08-22T03:41:24.548Z,16.07
2022-08-22T03:44:09.338Z,16.05
2022-08-22T03:47:02.740Z,16.03
2022-08-22T03:50:08.357Z,15.99
2022-08-22T03:53:05.526Z,16.12
2022-08-22T03:56:05.272Z,16.18
2022-08-22T03:59:09.949Z,16.09
2022-08-22T04:01:57.177Z,15.92
2022-08-22T04:05:03.285Z,15.87
2022-08-22T04:07:51.326Z,15.78
2022-08-22T04:10:48.565Z,15.88
2022-08-22T04:13:49.460Z,15.89
2022-08-22T04:16:50.255Z,15.85
2022-08-22T04:19:40.473Z,15.87
2022-08-22T04:22:25.563Z,15.67
2022-08-22T04:25:00.597Z,15.79
2022-08-22T04:27:36.796Z,15.86
2022-08-22T04:30:11.376Z,15.85
2022-08-22T04:32:44.846Z,15.77
2022-08-22T04:35:19.062Z,15.87
2022-08-22T04:37:52.360Z,15.92
2022-08-22T04:40:26.569Z,15.84
2022-08-22T04:42:58.963Z,15.77
2022-08-22T04:45:29.861Z,15.88
2022-08-22T04:48:06.025Z,15.86
2022-08-22T04:50:42.996Z,15.68
2022-08-22T04:53:25.929Z,15.60
2022-08-22T04:56:07.138Z,15.66
2022-08-22T04:58:46.499Z,15.59
2022-08-22T05:01:20.309Z,15.44
2022-08-22T05:03:56.852Z,15.38
2022-08-22T05:06:28.507Z,15.39
2022-08-22T05:09:00.725Z,15.29
2022-08-22T05:11:29.785Z,15.28
2022-08-22T05:14:02.296Z,15.32
2022-08-22T05:16:36.201Z,15.12
2022-08-22T05:19:14.339Z,15.15
2022-08-22T05:21:45.784Z,15.19
2022-08-22T05:24:30.351Z,15.24
2022-08-22T05:27:04.130Z,15.20
2022-08-22T05:29:32.961Z,15.16
2022-08-22T05:32:03.559Z,15.19
2022-08-22T05:34:37.309Z,15.10
2022-08-22T05:37:09.917Z,15.14
2022-08-22T05:39:41.650Z,15.16
2022-08-22T05:42:13.663Z,15.32
2022-08-22T05:44:41.118Z,15.37
2022-08-22T05:47:21.533Z,15.20
2022-08-22T05:49:58.909Z,15.23
2022-08-22T05:52:40.884Z,15.14
2022-08-22T05:55:22.965Z,15.24
2022-08-22T05:57:58.427Z,15.18
2022-08-22T06:00:30.284Z,15.18
2022-08-22T06:03:11.725Z,15.20
2022-08-22T06:05:45.138Z,15.15
2022-08-22T06:08:27.734Z,15.25
2022-08-22T06:11:02.639Z,15.19
2022-08-22T06:13:34.028Z,15.30
2022-08-22T06:16:09.907Z,15.26
2022-08-22T06:18:43.012Z,15.31
2022-08-22T06:21:18.258Z,15.27
2022-08-22T06:23:49.846Z,15.18
2022-08-22T06:26:20.691Z,15.26
2022-08-22T06:28:55.467Z,15.37
2022-08-22T06:31:27.953Z,15.37
2022-08-22T06:33:59.902Z,15.38
2022-08-22T06:36:33.166Z,15.38
2022-08-22T06:39:10.093Z,15.34
2022-08-22T06:41:45.117Z,15.32
2022-08-22T06:44:15.811Z,15.46
2022-08-22T06:46:46.419Z,15.59
2022-08-22T06:49:15.100Z,15.65
2022-08-22T06:51:46.101Z,15.68
2022-08-22T06:54:18.116Z,15.67
2022-08-22T06:56:48.881Z,15.77
2022-08-22T06:59:21.599Z,15.78
2022-08-22T07:01:54.689Z,15.87
2022-08-22T07:04:24.951Z,15.63
2022-08-22T07:06:55.819Z,15.69
2022-08-22T07:09:25.635Z,15.70
2022-08-22T07:11:54.849Z,15.84
2022-08-22T07:14:29.710Z,15.78
2022-08-22T07:17:00.533Z,15.90
2022-08-22T07:19:30.870Z,15.86
2022-08-22T07:22:13.477Z,15.90
2022-08-22T07:24:47.364Z,15.83
2022-08-22T07:27:27.526Z,15.85
2022-08-22T07:30:02.253Z,16.03
2022-08-22T07:32:41.851Z,15.91
2022-08-22T07:35:13.739Z,15.94
2022-08-22T07:37:59.316Z,15.70
2022-08-22T07:40:32.853Z,15.79
2022-08-22T07:43:09.099Z,15.91
2022-08-22T07:45:40.721Z,15.85
2022-08-22T07:48:25.904Z,15.99
2022-08-22T07:51:03.703Z,16.00
2022-08-22T07:53:39.320Z,15.96
2022-08-22T07:56:09.741Z,15.97
2022-08-22T07:58:41.003Z,16.10
2022-08-22T08:01:11.052Z,16.08
2022-08-22T08:03:39.655Z,16.11
2022-08-22T08:06:09.447Z,16.10
2022-08-22T08:08:44.598Z,16.07
2022-08-22T08:11:16.901Z,16.07
2022-08-22T08:13:46.036Z,16.12
2022-08-22T08:16:19.439Z,16.12
2022-08-22T08:18:48.311Z,16.10
2022-08-22T08:21:27.961Z,16.06
2022-08-22T08:23:59.034Z,16.16
2022-08-22T08:26:33.106Z,16.12
2022-08-22T08:29:06.355Z,16.22
2022-08-22T08:31:44.690Z,16.33
2022-08-22T08:34:18.869Z,16.38
2022-08-22T08:36:52.058Z,16.50
2022-08-22T08:39:25.584Z,16.61
2022-08-22T08:42:32.869Z,16.53
2022-08-22T08:45:24.354Z,16.63
2022-08-22T08:48:26.361Z,16.69
2022-08-22T08:51:08.323Z,16.61
2022-08-22T08:54:10.345Z,16.73
2022-08-22T08:56:51.688Z,16.70
2022-08-22T08:59:32.981Z,16.67
2022-08-22T09:02:20.357Z,16.84
2022-08-22T09:05:19.511Z,16.87
2022-08-22T09:08:31.076Z,16.89
2022-08-22T09:11:25.230Z,17.03
2022-08-22T09:14:14.123Z,17.06
2022-08-22T09:16:55.194Z,17.15
2022-08-22T09:19:49.837Z,17.08
2022-08-22T09:25:59.891Z,17.01
2022-08-22T09:28:34.907Z,16.95
2022-08-22T09:31:44.947Z,17.02
2022-08-22T09:34:25.439Z,17.01
2022-08-22T09:37:15.233Z,16.99
2022-08-22T09:39:52.688Z,17.11
2022-08-22T09:42:31.150Z,17.12
2022-08-22T09:45:39.607Z,17.14
2022-08-22T09:48:24.137Z,17.21
2022-08-22T09:51:28.729Z,17.22
2022-08-22T09:54:32.807Z,17.28
2022-08-22T09:57:14.480Z,17.33
2022-08-22T10:00:15.811Z,17.39
2022-08-22T10:02:51.959Z,17.48
2022-08-22T10:05:35.148Z,17.41
2022-08-22T10:08:19.645Z,17.34
2022-08-22T10:11:07.637Z,17.52
2022-08-22T10:14:00.646Z,17.60
2022-08-22T10:16:58.058Z,17.69
2022-08-22T10:19:32.481Z,17.58
2022-08-22T10:22:20.840Z,17.73
2022-08-22T10:24:59.427Z,17.82
2022-08-22T10:31:26.493Z,17.69
2022-08-22T10:34:33.166Z,17.65
2022-08-22T10:37:15.811Z,17.88
2022-08-22T10:39:58.012Z,18.00
2022-08-22T10:42:28.966Z,18.10
2022-08-22T10:45:36.177Z,17.89
2022-08-22T10:48:35.023Z,17.91
2022-08-22T10:51:34.056Z,17.99
2022-08-22T10:54:28.891Z,17.98
2022-08-22T10:57:14.667Z,18.08
2022-08-22T11:00:00.763Z,18.09
2022-08-22T11:02:44.846Z,18.14
2022-08-22T11:05:43.333Z,18.09
2022-08-22T11:08:47.384Z,18.03
2022-08-22T11:11:32.586Z,18.13
2022-08-22T11:14:19.696Z,18.04
2022-08-22T11:16:57.351Z,18.03
2022-08-22T11:19:43.247Z,18.04
2022-08-22T11:22:27.710Z,18.09
2022-08-22T11:25:29.285Z,18.03
2022-08-22T11:28:32.913Z,18.03
2022-08-22T11:31:12.688Z,18.10
2022-08-22T11:33:48.784Z,18.03
2022-08-22T11:36:33.032Z,18.08
2022-08-22T11:39:18.248Z,18.05
2022-08-22T11:41:57.653Z,18.10
2022-08-22T11:44:29.730Z,17.98
2022-08-22T11:47:01.127Z,18.06
2022-08-22T11:49:44.013Z,18.02
2022-08-22T11:52:25.015Z,18.09
2022-08-22T11:55:23.453Z,18.21
2022-08-22T11:58:02.831Z,18.33
2022-08-22T12:00:47.489Z,18.31
2022-08-22T12:03:46.169Z,18.18
2022-08-22T12:06:39.380Z,18.30
2022-08-22T12:09:29.745Z,18.42
2022-08-22T12:12:06.407Z,18.36
2022-08-22T12:14:42.840Z,18.38
2022-08-22T12:17:50.679Z,18.39
2022-08-22T12:20:31.734Z,18.42
2022-08-22T12:23:18.689Z,18.48
2022-08-22T12:26:02.827Z,18.47
2022-08-22T12:28:40.248Z,18.46
2022-08-22T12:31:17.108Z,18.42
2022-08-22T12:34:09.636Z,18.33
2022-08-22T12:37:11.895Z,18.18
2022-08-22T12:40:19.382Z,18.15
2022-08-22T12:42:53.639Z,18.28
2022-08-22T12:45:45.511Z,18.32
2022-08-22T12:48:32.001Z,18.32
2022-08-22T12:51:17.359Z,18.32
2022-08-22T12:54:26.842Z,18.40
2022-08-22T12:57:03.164Z,18.46
2022-08-22T12:59:35.113Z,18.47
2022-08-22T13:02:14.393Z,18.62
2022-08-22T13:04:50.748Z,18.42
2022-08-22T13:07:24.378Z,18.41
2022-08-22T13:09:59.308Z,18.34
2022-08-22T13:12:31.975Z,18.38
2022-08-22T13:15:05.846Z,18.31
2022-08-22T13:17:42.780Z,18.44
2022-08-22T13:20:20.156Z,18.56
2022-08-22T13:22:47.864Z,18.63
2022-08-22T13:25:25.968Z,18.66
2022-08-22T13:27:55.014Z,18.69
2022-08-22T13:30:30.363Z,18.78
2022-08-22T13:33:05.666Z,18.67
2022-08-22T13:35:52.341Z,18.63
2022-08-22T13:38:26.127Z,18.74
2022-08-22T13:40:57.979Z,18.57
2022-08-22T13:43:29.462Z,18.67
2022-08-22T13:46:01.863Z,18.76
2022-08-22T13:48:46.596Z,18.77
2022-08-22T13:51:23.057Z,18.81
2022-08-22T13:54:01.065Z,18.81
2022-08-22T13:56:44.033Z,18.75
2022-08-22T13:59:47.003Z,18.85
2022-08-22T14:02:31.109Z,18.78
2022-08-22T14:05:05.354Z,18.72
2022-08-22T14:07:38.611Z,18.68
2022-08-22T14:10:14.902Z,18.66
2022-08-22T14:13:04.846Z,18.74
2022-08-22T14:15:45.684Z,18.85
2022-08-22T14:18:30.335Z,18.83
2022-08-22T14:21:27.808Z,18.89
2022-08-22T14:23:58.859Z,18.82
2022-08-22T14:26:32.982Z,18.82
2022-08-22T14:29:12.340Z,18.74
2022-08-22T14:31:40.402Z,18.85
2022-08-22T14:34:13.756Z,18.88
2022-08-22T14:36:47.935Z,18.87
2022-08-22T14:39:26.168Z,18.90
2022-08-22T14:42:04.082Z,18.84
2022-08-22T14:44:40.488Z,18.96
2022-08-22T14:47:54.397Z,18.97
2022-08-22T14:50:09.578Z,19.06
2022-08-22T14:52:42.610Z,19.03
2022-08-22T14:55:23.508Z,19.08
2022-08-22T14:57:54.698Z,19.08
2022-08-22T15:00:37.696Z,19.12
2022-08-22T15:03:12.807Z,19.09
2022-08-22T15:05:45.728Z,19.03
2022-08-22T15:08:21.521Z,18.96
2022-08-22T15:11:07.530Z,18.99
2022-08-22T15:13:38.423Z,19.07
2022-08-22T15:16:17.577Z,19.27
2022-08-22T15:18:52.131Z,19.24
2022-08-22T15:21:25.398Z,19.21
2022-08-22T15:23:55.940Z,19.19
2022-08-22T15:26:28.178Z,19.28
2022-08-22T15:29:07.389Z,19.21
2022-08-22T15:31:40.685Z,19.22
2022-08-22T15:34:22.610Z,19.25
2022-08-22T15:37:22.428Z,19.22
2022-08-22T15:40:08.100Z,19.12
2022-08-22T15:42:42.148Z,19.11
2022-08-22T15:45:21.453Z,18.99
2022-08-22T15:47:54.043Z,18.95
2022-08-22T15:50:35.147Z,19.17
2022-08-22T15:53:18.870Z,19.22
2022-08-22T15:56:27.981Z,19.22
2022-08-22T15:59:31.348Z,19.32
2022-08-22T16:02:30.448Z,19.38
2022-08-22T16:05:21.948Z,19.40
2022-08-22T16:07:59.600Z,19.40
2022-08-22T16:10:35.058Z,19.31
2022-08-22T16:13:13.929Z,19.39
2022-08-22T16:16:04.393Z,19.42
2022-08-22T16:19:14.383Z,19.41
2022-08-22T16:22:13.859Z,19.28
2022-08-22T16:25:10.465Z,19.32
2022-08-22T16:27:55.256Z,19.45
2022-08-22T16:30:40.120Z,19.34
2022-08-22T16:33:12.190Z,19.21
2022-08-22T16:36:21.355Z,19.33
2022-08-22T16:38:54.669Z,19.27
2022-08-22T16:41:32.909Z,19.12
2022-08-22T16:44:23.319Z,19.17
2022-08-22T16:46:54.063Z,19.31
2022-08-22T16:49:27.748Z,19.34
2022-08-22T16:52:24.673Z,19.34
2022-08-22T16:54:56.788Z,19.38
2022-08-22T16:57:37.511Z,19.35
2022-08-22T17:00:10.085Z,19.21
2022-08-22T17:03:00.176Z,19.17
2022-08-22T17:05:47.619Z,19.24
2022-08-22T17:08:30.846Z,19.18
2022-08-22T17:11:17.310Z,19.12
2022-08-22T17:14:07.813Z,19.11
2022-08-22T17:16:54.061Z,19.12
2022-08-22T17:19:44.170Z,19.10
2022-08-22T17:22:29.127Z,19.17
2022-08-22T17:25:12.727Z,19.12
2022-08-22T17:27:47.087Z,19.24
2022-08-22T17:30:22.978Z,19.20
2022-08-22T17:33:09.785Z,19.13
2022-08-22T17:35:47.251Z,19.08
2022-08-22T17:38:27.090Z,19.05
2022-08-22T17:41:04.419Z,19.05
2022-08-22T17:43:49.796Z,18.97
2022-08-22T17:46:36.225Z,19.04
2022-08-22T17:49:16.758Z,18.99
2022-08-22T17:51:53.187Z,19.00
2022-08-22T17:54:29.917Z,19.09
2022-08-22T17:57:05.927Z,19.07
2022-08-22T17:59:45.823Z,19.14
2022-08-22T18:02:17.330Z,18.97
2022-08-22T18:04:52.373Z,18.95
2022-08-22T18:07:39.038Z,19.00
2022-08-22T18:10:12.347Z,18.95
2022-08-22T18:12:45.952Z,18.93
2022-08-22T18:15:23.241Z,19.01
2022-08-22T18:17:56.599Z,18.90
2022-08-22T18:20:30.682Z,18.90
2022-08-22T18:23:03.541Z,18.88
2022-08-22T18:25:41.959Z,18.88
2022-08-22T18:28:21.898Z,18.91
2022-08-22T18:30:58.014Z,18.80
2022-08-22T18:33:32.905Z,18.74
2022-08-22T18:36:08.700Z,18.93
2022-08-22T18:38:49.083Z,18.90
2022-08-22T18:41:26.364Z,18.82
2022-08-22T18:43:54.375Z,18.78
2022-08-22T18:46:41.451Z,18.85
2022-08-22T18:49:32.065Z,18.87
2022-08-22T18:52:32.904Z,18.87
2022-08-22T18:55:20.048Z,18.76
2022-08-22T18:58:03.051Z,18.84
2022-08-22T19:00:52.597Z,18.91
2022-08-22T19:03:39.876Z,18.97
2022-08-22T19:06:37.109Z,18.99
2022-08-22T19:09:37.550Z,19.12
2022-08-22T19:12:19.856Z,19.05
2022-08-22T19:15:15.432Z,19.02
2022-08-22T19:18:03.945Z,19.12
2022-08-22T19:20:37.794Z,19.16
2022-08-22T19:23:42.222Z,18.89
2022-08-22T19:26:35.407Z,18.83
2022-08-22T19:29:10.835Z,18.95
2022-08-22T19:31:46.737Z,18.87
2022-08-22T19:34:33.713Z,18.96
2022-08-22T19:37:32.410Z,18.90
2022-08-22T19:40:02.684Z,18.84
2022-08-22T19:42:38.938Z,18.76
2022-08-22T19:45:18.807Z,18.84
2022-08-22T19:47:57.086Z,18.81
2022-08-22T19:50:31.078Z,18.78
2022-08-22T19:53:11.317Z,18.79
2022-08-22T19:55:54.911Z,18.84
2022-08-22T19:58:32.064Z,18.62
2022-08-22T20:01:24.628Z,18.80
2022-08-22T20:03:58.973Z,18.73
2022-08-22T20:06:48.018Z,18.77
2022-08-22T20:09:39.065Z,18.62
2022-08-22T20:12:15.468Z,18.67
2022-08-22T20:14:46.286Z,18.40
2022-08-22T20:17:30.414Z,18.42
2022-08-22T20:20:17.791Z,18.55
2022-08-22T20:22:52.955Z,18.65
2022-08-22T20:25:43.078Z,18.75
2022-08-22T20:28:34.522Z,18.86
2022-08-22T20:31:10.406Z,18.85
2022-08-22T20:33:42.002Z,18.72
2022-08-22T20:36:27.344Z,18.75
2022-08-22T20:39:00.034Z,18.56
2022-08-22T20:41:32.506Z,18.61
2022-08-22T20:44:06.155Z,18.58
2022-08-22T20:46:53.366Z,18.51
2022-08-22T20:49:24.884Z,18.61
2022-08-22T20:51:57.193Z,18.45
2022-08-22T20:54:24.925Z,18.48
2022-08-22T20:56:55.393Z,18.46
2022-08-22T20:59:31.893Z,18.51
2022-08-22T21:02:07.601Z,18.55
2022-08-22T21:04:43.094Z,18.41
2022-08-22T21:07:11.964Z,18.55
2022-08-22T21:09:40.620Z,18.59
2022-08-22T21:12:08.273Z,18.60
2022-08-22T21:14:38.043Z,18.60
2022-08-22T21:17:25.094Z,18.63
2022-08-22T21:19:53.088Z,18.67
2022-08-22T21:22:29.239Z,18.69
2022-08-22T21:25:00.309Z,18.75
2022-08-22T21:27:30.943Z,18.75
2022-08-22T21:30:00.203Z,18.71
2022-08-22T21:32:34.004Z,18.69
2022-08-22T21:35:03.624Z,18.66
2022-08-22T21:37:37.828Z,18.58
2022-08-22T21:40:14.612Z,18.55
2022-08-22T21:42:44.752Z,18.50
2022-08-22T21:45:28.680Z,18.52
2022-08-22T21:47:56.598Z,18.52
2022-08-22T21:50:31.792Z,18.54
2022-08-22T21:53:10.171Z,18.52
2022-08-22T21:55:40.939Z,18.50
2022-08-22T21:58:12.688Z,18.53
2022-08-22T22:00:49.801Z,18.53
2022-08-22T22:03:19.571Z,18.65
2022-08-22T22:05:47.376Z,18.58
2022-08-22T22:08:17.013Z,18.67
2022-08-22T22:10:46.288Z,18.76
2022-08-22T22:13:14.479Z,18.63
2022-08-22T22:15:44.042Z,18.57
2022-08-22T22:18:12.492Z,18.73
2022-08-22T22:20:41.109Z,18.83
2022-08-22T22:23:08.862Z,18.78
2022-08-22T22:25:42.145Z,18.75
2022-08-22T22:28:14.433Z,18.78
2022-08-22T22:30:42.626Z,18.78
2022-08-22T22:33:10.461Z,18.85
2022-08-22T22:35:40.085Z,18.82
2022-08-22T22:38:07.850Z,18.78
2022-08-22T22:40:35.498Z,18.74
2022-08-22T22:43:04.773Z,18.76
2022-08-22T22:45:32.087Z,18.68
2022-08-22T22:47:59.899Z,18.77
2022-08-22T22:50:27.831Z,18.81
2022-08-22T22:52:55.089Z,18.77
2022-08-22T22:55:24.535Z,18.76
2022-08-22T22:57:58.747Z,18.71
2022-08-22T23:00:30.926Z,18.80
2022-08-22T23:03:00.169Z,18.80
2022-08-22T23:05:28.132Z,18.61
2022-08-22T23:07:55.540Z,18.65
2022-08-22T23:10:23.643Z,18.70
2022-08-22T23:12:50.858Z,18.74
2022-08-22T23:15:18.132Z,18.70
2022-08-22T23:17:47.207Z,18.72
2022-08-22T23:20:14.473Z,18.87
2022-08-22T23:22:43.674Z,18.84
2022-08-22T23:25:11.470Z,18.80
2022-08-22T23:27:38.947Z,18.80
2022-08-22T23:30:08.014Z,18.77
2022-08-22T23:32:36.015Z,18.69
2022-08-22T23:35:05.809Z,18.65
2022-08-22T23:37:32.998Z,18.71
2022-08-22T23:40:00.657Z,18.73
2022-08-22T23:42:28.059Z,18.83
2022-08-22T23:44:55.330Z,18.73
2022-08-22T23:47:22.956Z,18.66
2022-08-22T23:49:50.326Z,18.61
2022-08-22T23:52:19.103Z,18.73
2022-08-22T23:54:46.614Z,18.76
2022-08-22T23:57:14.518Z,18.82
2022-08-22T23:59:48.012Z,18.74
